sensor_id;sensor_type;location;lat;lon;timestamp;P1;durP1;ratioP1;P2;durP2;ratioP2
73632;SDS011;61927;50.080;14.418;2023-01-28T00:01:07;28.73;;;14.02;;
73632;SDS011;61927;50.080;14.418;2023-01-28T00:03:33;30.00;;;13.68;;
73632;SDS011;61927;50.080;14.418;2023-01-28T00:06:00;30.67;;;14.40;;
73632;SDS011;61927;50.080;14.418;2023-01-28T00:08:27;30.25;;;14.88;;
73632;SDS011;61927;50.080;14.418;2023-01-28T00:10:53;32.58;;;14.82;;
73632;SDS011;61927;50.080;14.418;2023-01-28T00:13:18;29.42;;;14.60;;
73632;SDS011;61927;50.080;14.418;2023-01-28T00:15:44;27.85;;;14.20;;
73632;SDS011;61927;50.080;14.418;2023-01-28T00:18:09;31.88;;;14.80;;
73632;SDS011;61927;50.080;14.418;2023-01-28T00:20:35;32.25;;;15.02;;
73632;SDS011;61927;50.080;14.418;2023-01-28T00:23:01;30.33;;;14.32;;
73632;SDS011;61927;50.080;14.418;2023-01-28T00:25:27;32.35;;;15.60;;
73632;SDS011;61927;50.080;14.418;2023-01-28T00:27:52;38.40;;;16.23;;
73632;SDS011;61927;50.080;14.418;2023-01-28T00:30:18;34.35;;;14.73;;
73632;SDS011;61927;50.080;14.418;2023-01-28T00:32:44;30.50;;;14.65;;
73632;SDS011;61927;50.080;14.418;2023-01-28T00:35:10;33.25;;;16.10;;
73632;SDS011;61927;50.080;14.418;2023-01-28T00:37:36;32.70;;;15.85;;
73632;SDS011;61927;50.080;14.418;2023-01-28T00:40:02;36.13;;;15.35;;
73632;SDS011;61927;50.080;14.418;2023-01-28T00:42:28;31.58;;;15.23;;
73632;SDS011;61927;50.080;14.418;2023-01-28T00:44:53;29.75;;;14.98;;
73632;SDS011;61927;50.080;14.418;2023-01-28T00:47:19;31.25;;;16.38;;
73632;SDS011;61927;50.080;14.418;2023-01-28T00:49:46;30.67;;;15.30;;
73632;SDS011;61927;50.080;14.418;2023-01-28T00:52:12;35.72;;;16.25;;
73632;SDS011;61927;50.080;14.418;2023-01-28T00:54:37;30.92;;;15.85;;
73632;SDS011;61927;50.080;14.418;2023-01-28T00:57:03;38.72;;;16.52;;
73632;SDS011;61927;50.080;14.418;2023-01-28T00:59:29;32.90;;;16.33;;
73632;SDS011;61927;50.080;14.418;2023-01-28T01:01:54;35.80;;;16.73;;
73632;SDS011;61927;50.080;14.418;2023-01-28T01:04:36;31.52;;;16.92;;
73632;SDS011;61927;50.080;14.418;2023-01-28T01:07:01;34.15;;;16.55;;
73632;SDS011;61927;50.080;14.418;2023-01-28T01:09:27;33.47;;;15.70;;
73632;SDS011;61927;50.080;14.418;2023-01-28T01:11:52;30.58;;;16.00;;
73632;SDS011;61927;50.080;14.418;2023-01-28T01:14:18;44.13;;;17.75;;
73632;SDS011;61927;50.080;14.418;2023-01-28T01:16:43;38.13;;;17.85;;
73632;SDS011;61927;50.080;14.418;2023-01-28T01:19:10;42.42;;;17.92;;
73632;SDS011;61927;50.080;14.418;2023-01-28T01:21:36;34.50;;;15.90;;
73632;SDS011;61927;50.080;14.418;2023-01-28T01:24:02;41.40;;;17.60;;
73632;SDS011;61927;50.080;14.418;2023-01-28T01:26:27;33.90;;;15.48;;
73632;SDS011;61927;50.080;14.418;2023-01-28T01:28:53;36.15;;;16.77;;
73632;SDS011;61927;50.080;14.418;2023-01-28T01:31:19;41.25;;;18.42;;
73632;SDS011;61927;50.080;14.418;2023-01-28T01:33:47;37.53;;;18.00;;
73632;SDS011;61927;50.080;14.418;2023-01-28T01:36:15;34.92;;;17.33;;
73632;SDS011;61927;50.080;14.418;2023-01-28T01:38:44;39.58;;;17.90;;
73632;SDS011;61927;50.080;14.418;2023-01-28T01:41:15;40.58;;;17.52;;
73632;SDS011;61927;50.080;14.418;2023-01-28T01:43:49;40.03;;;18.20;;
73632;SDS011;61927;50.080;14.418;2023-01-28T01:47:00;36.88;;;17.67;;
73632;SDS011;61927;50.080;14.418;2023-01-28T01:49:20;38.78;;;17.65;;
73632;SDS011;61927;50.080;14.418;2023-01-28T01:51:53;40.00;;;18.15;;
73632;SDS011;61927;50.080;14.418;2023-01-28T01:54:27;40.83;;;18.48;;
73632;SDS011;61927;50.080;14.418;2023-01-28T01:56:55;38.63;;;17.17;;
73632;SDS011;61927;50.080;14.418;2023-01-28T01:59:25;38.88;;;17.42;;
73632;SDS011;61927;50.080;14.418;2023-01-28T02:01:54;40.42;;;17.88;;
73632;SDS011;61927;50.080;14.418;2023-01-28T02:04:40;41.97;;;18.70;;
73632;SDS011;61927;50.080;14.418;2023-01-28T02:07:09;36.30;;;16.75;;
73632;SDS011;61927;50.080;14.418;2023-01-28T02:09:37;42.60;;;18.63;;
73632;SDS011;61927;50.080;14.418;2023-01-28T02:12:16;39.13;;;17.33;;
73632;SDS011;61927;50.080;14.418;2023-01-28T02:14:54;41.53;;;17.90;;
73632;SDS011;61927;50.080;14.418;2023-01-28T02:17:25;41.78;;;15.30;;
73632;SDS011;61927;50.080;14.418;2023-01-28T02:20:02;37.97;;;17.42;;
73632;SDS011;61927;50.080;14.418;2023-01-28T02:31:10;35.65;;;15.57;;
73632;SDS011;61927;50.080;14.418;2023-01-28T02:34:01;36.13;;;16.75;;
73632;SDS011;61927;50.080;14.418;2023-01-28T02:39:07;42.25;;;17.73;;
73632;SDS011;61927;50.080;14.418;2023-01-28T02:41:42;41.90;;;18.02;;
73632;SDS011;61927;50.080;14.418;2023-01-28T02:44:14;35.90;;;17.38;;
73632;SDS011;61927;50.080;14.418;2023-01-28T02:46:40;37.45;;;16.67;;
73632;SDS011;61927;50.080;14.418;2023-01-28T02:58:33;38.08;;;16.90;;
73632;SDS011;61927;50.080;14.418;2023-01-28T03:01:04;39.40;;;16.80;;
73632;SDS011;61927;50.080;14.418;2023-01-28T03:03:57;36.05;;;16.60;;
73632;SDS011;61927;50.080;14.418;2023-01-28T03:06:27;32.55;;;16.02;;
73632;SDS011;61927;50.080;14.418;2023-01-28T03:09:00;39.42;;;16.70;;
73632;SDS011;61927;50.080;14.418;2023-01-28T03:21:24;38.42;;;15.07;;
73632;SDS011;61927;50.080;14.418;2023-01-28T03:24:24;31.38;;;15.95;;
73632;SDS011;61927;50.080;14.418;2023-01-28T03:30:30;33.70;;;15.13;;
73632;SDS011;61927;50.080;14.418;2023-01-28T03:33:22;32.28;;;15.70;;
73632;SDS011;61927;50.080;14.418;2023-01-28T03:36:08;30.77;;;14.77;;
73632;SDS011;61927;50.080;14.418;2023-01-28T03:38:53;37.35;;;15.38;;
73632;SDS011;61927;50.080;14.418;2023-01-28T03:41:22;33.17;;;15.70;;
73632;SDS011;61927;50.080;14.418;2023-01-28T03:43:49;30.23;;;14.45;;
73632;SDS011;61927;50.080;14.418;2023-01-28T03:46:15;34.95;;;15.27;;
73632;SDS011;61927;50.080;14.418;2023-01-28T03:48:42;33.58;;;15.48;;
73632;SDS011;61927;50.080;14.418;2023-01-28T03:51:08;29.65;;;14.73;;
73632;SDS011;61927;50.080;14.418;2023-01-28T03:53:34;28.33;;;14.32;;
73632;SDS011;61927;50.080;14.418;2023-01-28T03:56:00;33.20;;;14.98;;
73632;SDS011;61927;50.080;14.418;2023-01-28T03:58:25;33.83;;;15.65;;
73632;SDS011;61927;50.080;14.418;2023-01-28T04:01:10;32.80;;;15.55;;
73632;SDS011;61927;50.080;14.418;2023-01-28T04:03:37;30.65;;;14.77;;
73632;SDS011;61927;50.080;14.418;2023-01-28T04:06:04;29.33;;;14.02;;
73632;SDS011;61927;50.080;14.418;2023-01-28T04:08:31;32.22;;;13.98;;
73632;SDS011;61927;50.080;14.418;2023-01-28T04:10:57;34.38;;;15.75;;
73632;SDS011;61927;50.080;14.418;2023-01-28T04:13:22;26.02;;;13.40;;
73632;SDS011;61927;50.080;14.418;2023-01-28T04:15:48;28.88;;;13.60;;
73632;SDS011;61927;50.080;14.418;2023-01-28T04:18:14;24.63;;;13.07;;
73632;SDS011;61927;50.080;14.418;2023-01-28T04:20:40;26.25;;;13.25;;
73632;SDS011;61927;50.080;14.418;2023-01-28T04:23:06;30.38;;;14.32;;
73632;SDS011;61927;50.080;14.418;2023-01-28T04:25:32;29.92;;;14.93;;
73632;SDS011;61927;50.080;14.418;2023-01-28T04:27:58;33.70;;;13.80;;
73632;SDS011;61927;50.080;14.418;2023-01-28T04:30:24;31.45;;;13.80;;
73632;SDS011;61927;50.080;14.418;2023-01-28T04:32:50;25.00;;;13.07;;
73632;SDS011;61927;50.080;14.418;2023-01-28T04:35:16;27.38;;;13.25;;
73632;SDS011;61927;50.080;14.418;2023-01-28T04:37:42;26.80;;;13.73;;
73632;SDS011;61927;50.080;14.418;2023-01-28T04:40:09;23.00;;;13.00;;
73632;SDS011;61927;50.080;14.418;2023-01-28T04:42:36;23.92;;;11.60;;
73632;SDS011;61927;50.080;14.418;2023-01-28T04:45:01;24.38;;;13.20;;
73632;SDS011;61927;50.080;14.418;2023-01-28T04:47:27;23.52;;;12.15;;
73632;SDS011;61927;50.080;14.418;2023-01-28T04:49:53;28.33;;;12.35;;
73632;SDS011;61927;50.080;14.418;2023-01-28T04:52:19;26.15;;;12.35;;
73632;SDS011;61927;50.080;14.418;2023-01-28T04:54:44;21.98;;;11.63;;
73632;SDS011;61927;50.080;14.418;2023-01-28T04:57:10;20.27;;;11.07;;
73632;SDS011;61927;50.080;14.418;2023-01-28T04:59:36;21.50;;;10.88;;
73632;SDS011;61927;50.080;14.418;2023-01-28T05:02:02;17.92;;;10.43;;
73632;SDS011;61927;50.080;14.418;2023-01-28T05:04:27;24.27;;;11.27;;
73632;SDS011;61927;50.080;14.418;2023-01-28T05:06:53;17.83;;;10.15;;
73632;SDS011;61927;50.080;14.418;2023-01-28T05:09:19;19.23;;;10.18;;
73632;SDS011;61927;50.080;14.418;2023-01-28T05:11:44;18.35;;;10.20;;
73632;SDS011;61927;50.080;14.418;2023-01-28T05:14:10;20.38;;;9.77;;
73632;SDS011;61927;50.080;14.418;2023-01-28T05:16:36;17.52;;;9.68;;
73632;SDS011;61927;50.080;14.418;2023-01-28T05:19:02;18.73;;;9.13;;
73632;SDS011;61927;50.080;14.418;2023-01-28T05:21:28;16.73;;;8.70;;
73632;SDS011;61927;50.080;14.418;2023-01-28T05:23:53;18.27;;;10.13;;
73632;SDS011;61927;50.080;14.418;2023-01-28T05:26:19;16.88;;;9.02;;
73632;SDS011;61927;50.080;14.418;2023-01-28T05:28:44;16.55;;;9.05;;
73632;SDS011;61927;50.080;14.418;2023-01-28T05:31:10;18.65;;;8.82;;
73632;SDS011;61927;50.080;14.418;2023-01-28T05:33:36;18.27;;;8.85;;
73632;SDS011;61927;50.080;14.418;2023-01-28T05:36:02;15.90;;;8.93;;
73632;SDS011;61927;50.080;14.418;2023-01-28T05:38:28;18.25;;;8.70;;
73632;SDS011;61927;50.080;14.418;2023-01-28T05:40:54;14.02;;;8.48;;
73632;SDS011;61927;50.080;14.418;2023-01-28T05:43:20;12.80;;;7.13;;
73632;SDS011;61927;50.080;14.418;2023-01-28T05:45:46;14.38;;;7.85;;
73632;SDS011;61927;50.080;14.418;2023-01-28T05:48:12;13.75;;;8.10;;
73632;SDS011;61927;50.080;14.418;2023-01-28T05:50:38;12.90;;;7.63;;
73632;SDS011;61927;50.080;14.418;2023-01-28T05:53:04;14.77;;;7.70;;
73632;SDS011;61927;50.080;14.418;2023-01-28T05:55:31;12.30;;;7.45;;
73632;SDS011;61927;50.080;14.418;2023-01-28T05:57:56;13.95;;;7.68;;
73632;SDS011;61927;50.080;14.418;2023-01-28T06:00:22;15.70;;;8.35;;
73632;SDS011;61927;50.080;14.418;2023-01-28T06:02:49;10.52;;;6.72;;
73632;SDS011;61927;50.080;14.418;2023-01-28T06:05:15;10.85;;;7.03;;
73632;SDS011;61927;50.080;14.418;2023-01-28T06:07:43;13.38;;;7.50;;
73632;SDS011;61927;50.080;14.418;2023-01-28T06:10:12;12.27;;;7.30;;
73632;SDS011;61927;50.080;14.418;2023-01-28T06:12:38;12.75;;;7.47;;
73632;SDS011;61927;50.080;14.418;2023-01-28T06:15:04;13.90;;;7.50;;
73632;SDS011;61927;50.080;14.418;2023-01-28T06:17:30;12.60;;;7.65;;
73632;SDS011;61927;50.080;14.418;2023-01-28T06:19:56;11.52;;;7.30;;
73632;SDS011;61927;50.080;14.418;2023-01-28T06:22:21;12.10;;;7.13;;
73632;SDS011;61927;50.080;14.418;2023-01-28T06:24:47;14.25;;;7.90;;
73632;SDS011;61927;50.080;14.418;2023-01-28T06:27:13;13.05;;;7.63;;
73632;SDS011;61927;50.080;14.418;2023-01-28T06:29:39;12.02;;;7.00;;
73632;SDS011;61927;50.080;14.418;2023-01-28T06:32:04;11.25;;;7.65;;
73632;SDS011;61927;50.080;14.418;2023-01-28T06:34:30;10.85;;;6.97;;
73632;SDS011;61927;50.080;14.418;2023-01-28T06:36:56;16.73;;;7.22;;
73632;SDS011;61927;50.080;14.418;2023-01-28T06:39:22;11.23;;;7.00;;
73632;SDS011;61927;50.080;14.418;2023-01-28T06:41:48;8.52;;;6.25;;
73632;SDS011;61927;50.080;14.418;2023-01-28T06:44:14;10.50;;;7.10;;
73632;SDS011;61927;50.080;14.418;2023-01-28T06:46:40;10.13;;;7.18;;
73632;SDS011;61927;50.080;14.418;2023-01-28T06:49:06;9.80;;;6.95;;
73632;SDS011;61927;50.080;14.418;2023-01-28T06:51:31;8.43;;;6.47;;
73632;SDS011;61927;50.080;14.418;2023-01-28T06:53:57;8.93;;;6.72;;
73632;SDS011;61927;50.080;14.418;2023-01-28T06:56:23;12.10;;;7.10;;
73632;SDS011;61927;50.080;14.418;2023-01-28T06:58:49;9.55;;;6.40;;
73632;SDS011;61927;50.080;14.418;2023-01-28T07:01:14;13.80;;;6.57;;
73632;SDS011;61927;50.080;14.418;2023-01-28T07:03:40;9.95;;;5.75;;
73632;SDS011;61927;50.080;14.418;2023-01-28T07:06:06;8.00;;;5.40;;
73632;SDS011;61927;50.080;14.418;2023-01-28T07:08:32;11.35;;;5.80;;
73632;SDS011;61927;50.080;14.418;2023-01-28T07:10:57;8.95;;;6.03;;
73632;SDS011;61927;50.080;14.418;2023-01-28T07:13:23;9.93;;;6.32;;
73632;SDS011;61927;50.080;14.418;2023-01-28T07:15:49;6.85;;;4.78;;
73632;SDS011;61927;50.080;14.418;2023-01-28T07:18:15;21.75;;;5.72;;
73632;SDS011;61927;50.080;14.418;2023-01-28T07:20:40;9.13;;;6.10;;
73632;SDS011;61927;50.080;14.418;2023-01-28T07:23:07;9.23;;;6.25;;
73632;SDS011;61927;50.080;14.418;2023-01-28T07:25:32;5.97;;;4.57;;
73632;SDS011;61927;50.080;14.418;2023-01-28T07:27:58;7.55;;;5.07;;
73632;SDS011;61927;50.080;14.418;2023-01-28T07:30:24;6.60;;;4.82;;
73632;SDS011;61927;50.080;14.418;2023-01-28T07:32:53;7.15;;;4.68;;
73632;SDS011;61927;50.080;14.418;2023-01-28T07:35:20;8.30;;;4.60;;
73632;SDS011;61927;50.080;14.418;2023-01-28T07:37:50;4.78;;;4.07;;
73632;SDS011;61927;50.080;14.418;2023-01-28T07:40:17;5.65;;;4.43;;
73632;SDS011;61927;50.080;14.418;2023-01-28T07:42:43;6.05;;;4.63;;
73632;SDS011;61927;50.080;14.418;2023-01-28T07:45:09;11.77;;;5.10;;
73632;SDS011;61927;50.080;14.418;2023-01-28T07:47:35;6.32;;;4.53;;
73632;SDS011;61927;50.080;14.418;2023-01-28T07:50:00;8.45;;;5.10;;
73632;SDS011;61927;50.080;14.418;2023-01-28T07:52:26;6.72;;;5.13;;
73632;SDS011;61927;50.080;14.418;2023-01-28T07:54:51;7.75;;;4.90;;
73632;SDS011;61927;50.080;14.418;2023-01-28T07:57:17;6.85;;;4.78;;
73632;SDS011;61927;50.080;14.418;2023-01-28T07:59:50;8.35;;;4.78;;
73632;SDS011;61927;50.080;14.418;2023-01-28T08:02:16;5.63;;;3.97;;
73632;SDS011;61927;50.080;14.418;2023-01-28T08:04:42;13.10;;;4.78;;
73632;SDS011;61927;50.080;14.418;2023-01-28T08:07:08;4.75;;;4.03;;
73632;SDS011;61927;50.080;14.418;2023-01-28T08:09:34;4.78;;;3.97;;
73632;SDS011;61927;50.080;14.418;2023-01-28T08:12:00;5.88;;;4.40;;
73632;SDS011;61927;50.080;14.418;2023-01-28T08:14:27;8.40;;;4.97;;
73632;SDS011;61927;50.080;14.418;2023-01-28T08:16:52;8.18;;;4.25;;
73632;SDS011;61927;50.080;14.418;2023-01-28T08:19:18;10.80;;;4.82;;
73632;SDS011;61927;50.080;14.418;2023-01-28T08:21:48;9.80;;;5.90;;
73632;SDS011;61927;50.080;14.418;2023-01-28T08:24:15;6.47;;;4.97;;
73632;SDS011;61927;50.080;14.418;2023-01-28T08:26:41;9.68;;;5.93;;
73632;SDS011;61927;50.080;14.418;2023-01-28T08:29:07;7.80;;;4.13;;
73632;SDS011;61927;50.080;14.418;2023-01-28T08:31:33;5.88;;;4.22;;
73632;SDS011;61927;50.080;14.418;2023-01-28T08:33:59;4.28;;;3.88;;
73632;SDS011;61927;50.080;14.418;2023-01-28T08:36:24;5.25;;;3.97;;
73632;SDS011;61927;50.080;14.418;2023-01-28T08:38:50;4.55;;;3.55;;
73632;SDS011;61927;50.080;14.418;2023-01-28T08:41:21;6.45;;;3.70;;
73632;SDS011;61927;50.080;14.418;2023-01-28T08:43:47;3.92;;;3.03;;
73632;SDS011;61927;50.080;14.418;2023-01-28T08:46:14;5.18;;;4.10;;
73632;SDS011;61927;50.080;14.418;2023-01-28T08:48:40;8.32;;;5.10;;
73632;SDS011;61927;50.080;14.418;2023-01-28T08:51:06;5.43;;;3.75;;
73632;SDS011;61927;50.080;14.418;2023-01-28T08:53:31;5.55;;;4.00;;
73632;SDS011;61927;50.080;14.418;2023-01-28T08:55:57;5.80;;;4.30;;
73632;SDS011;61927;50.080;14.418;2023-01-28T08:58:23;7.45;;;4.55;;
73632;SDS011;61927;50.080;14.418;2023-01-28T09:00:49;6.38;;;3.58;;
73632;SDS011;61927;50.080;14.418;2023-01-28T09:03:15;11.60;;;3.92;;
73632;SDS011;61927;50.080;14.418;2023-01-28T09:05:42;11.82;;;4.53;;
73632;SDS011;61927;50.080;14.418;2023-01-28T09:08:09;8.02;;;4.20;;
73632;SDS011;61927;50.080;14.418;2023-01-28T09:10:39;12.90;;;4.00;;
73632;SDS011;61927;50.080;14.418;2023-01-28T09:13:06;9.25;;;3.90;;
73632;SDS011;61927;50.080;14.418;2023-01-28T09:15:33;5.53;;;4.05;;
73632;SDS011;61927;50.080;14.418;2023-01-28T09:17:59;6.63;;;4.35;;
73632;SDS011;61927;50.080;14.418;2023-01-28T09:20:25;3.28;;;2.97;;
73632;SDS011;61927;50.080;14.418;2023-01-28T09:22:51;8.32;;;4.05;;
73632;SDS011;61927;50.080;14.418;2023-01-28T09:25:17;4.57;;;3.53;;
73632;SDS011;61927;50.080;14.418;2023-01-28T09:27:43;9.02;;;4.40;;
73632;SDS011;61927;50.080;14.418;2023-01-28T09:30:09;7.03;;;3.88;;
73632;SDS011;61927;50.080;14.418;2023-01-28T09:32:35;6.38;;;4.20;;
73632;SDS011;61927;50.080;14.418;2023-01-28T09:35:01;6.43;;;4.20;;
73632;SDS011;61927;50.080;14.418;2023-01-28T09:37:27;4.80;;;4.10;;
73632;SDS011;61927;50.080;14.418;2023-01-28T09:39:52;9.82;;;4.72;;
73632;SDS011;61927;50.080;14.418;2023-01-28T09:42:23;11.73;;;4.90;;
73632;SDS011;61927;50.080;14.418;2023-01-28T09:45:18;6.20;;;4.53;;
73632;SDS011;61927;50.080;14.418;2023-01-28T09:47:57;7.30;;;4.47;;
73632;SDS011;61927;50.080;14.418;2023-01-28T09:50:36;9.77;;;4.78;;
73632;SDS011;61927;50.080;14.418;2023-01-28T09:53:20;5.63;;;4.63;;
73632;SDS011;61927;50.080;14.418;2023-01-28T09:56:10;5.45;;;4.13;;
73632;SDS011;61927;50.080;14.418;2023-01-28T09:58:40;5.50;;;3.35;;
73632;SDS011;61927;50.080;14.418;2023-01-28T10:04:18;8.82;;;4.70;;
73632;SDS011;61927;50.080;14.418;2023-01-28T10:12:22;8.52;;;4.45;;
73632;SDS011;61927;50.080;14.418;2023-01-28T10:15:25;7.25;;;4.40;;
73632;SDS011;61927;50.080;14.418;2023-01-28T10:17:56;7.50;;;5.03;;
73632;SDS011;61927;50.080;14.418;2023-01-28T10:20:28;8.02;;;4.95;;
73632;SDS011;61927;50.080;14.418;2023-01-28T10:25:27;6.40;;;4.63;;
73632;SDS011;61927;50.080;14.418;2023-01-28T10:27:55;5.80;;;4.32;;
73632;SDS011;61927;50.080;14.418;2023-01-28T10:30:30;5.60;;;4.53;;
73632;SDS011;61927;50.080;14.418;2023-01-28T10:33:02;5.60;;;4.55;;
73632;SDS011;61927;50.080;14.418;2023-01-28T10:35:47;5.32;;;4.25;;
73632;SDS011;61927;50.080;14.418;2023-01-28T10:38:14;5.70;;;4.55;;
73632;SDS011;61927;50.080;14.418;2023-01-28T10:40:43;5.00;;;4.38;;
73632;SDS011;61927;50.080;14.418;2023-01-28T10:43:13;3.67;;;3.22;;
73632;SDS011;61927;50.080;14.418;2023-01-28T10:48:52;7.63;;;4.65;;
73632;SDS011;61927;50.080;14.418;2023-01-28T10:51:30;10.68;;;5.03;;
73632;SDS011;61927;50.080;14.418;2023-01-28T10:53:57;21.27;;;7.25;;
73632;SDS011;61927;50.080;14.418;2023-01-28T10:56:27;7.78;;;5.03;;
73632;SDS011;61927;50.080;14.418;2023-01-28T10:59:05;7.57;;;4.65;;
73632;SDS011;61927;50.080;14.418;2023-01-28T11:01:43;5.93;;;4.72;;
73632;SDS011;61927;50.080;14.418;2023-01-28T11:07:15;5.72;;;4.40;;
73632;SDS011;61927;50.080;14.418;2023-01-28T11:09:46;5.35;;;4.30;;
73632;SDS011;61927;50.080;14.418;2023-01-28T11:12:20;7.03;;;4.13;;
73632;SDS011;61927;50.080;14.418;2023-01-28T11:14:52;6.40;;;4.93;;
73632;SDS011;61927;50.080;14.418;2023-01-28T11:17:20;7.13;;;4.70;;
73632;SDS011;61927;50.080;14.418;2023-01-28T11:19:48;5.90;;;4.07;;
73632;SDS011;61927;50.080;14.418;2023-01-28T11:25:02;5.07;;;3.75;;
73632;SDS011;61927;50.080;14.418;2023-01-28T11:27:38;4.95;;;4.38;;
73632;SDS011;61927;50.080;14.418;2023-01-28T11:30:04;5.00;;;3.75;;
73632;SDS011;61927;50.080;14.418;2023-01-28T11:32:32;6.97;;;4.65;;
73632;SDS011;61927;50.080;14.418;2023-01-28T11:34:58;7.82;;;5.10;;
73632;SDS011;61927;50.080;14.418;2023-01-28T11:37:26;14.18;;;5.55;;
73632;SDS011;61927;50.080;14.418;2023-01-28T11:42:27;9.75;;;4.75;;
73632;SDS011;61927;50.080;14.418;2023-01-28T11:44:54;11.23;;;5.50;;
73632;SDS011;61927;50.080;14.418;2023-01-28T11:50:17;8.45;;;5.10;;
73632;SDS011;61927;50.080;14.418;2023-01-28T11:53:02;18.70;;;4.57;;
73632;SDS011;61927;50.080;14.418;2023-01-28T11:55:52;11.20;;;4.90;;
73632;SDS011;61927;50.080;14.418;2023-01-28T12:01:13;5.75;;;4.15;;
73632;SDS011;61927;50.080;14.418;2023-01-28T12:20:29;5.80;;;3.70;;
73632;SDS011;61927;50.080;14.418;2023-01-28T12:29:30;6.97;;;3.15;;
73632;SDS011;61927;50.080;14.418;2023-01-28T12:38:11;7.57;;;4.20;;
73632;SDS011;61927;50.080;14.418;2023-01-28T12:40:54;6.88;;;3.90;;
73632;SDS011;61927;50.080;14.418;2023-01-28T12:43:42;5.03;;;3.00;;
73632;SDS011;61927;50.080;14.418;2023-01-28T12:46:41;6.55;;;3.78;;
73632;SDS011;61927;50.080;14.418;2023-01-28T12:49:13;8.88;;;4.00;;
73632;SDS011;61927;50.080;14.418;2023-01-28T12:54:30;7.85;;;3.38;;
73632;SDS011;61927;50.080;14.418;2023-01-28T12:57:02;6.45;;;3.58;;
73632;SDS011;61927;50.080;14.418;2023-01-28T13:02:00;8.02;;;3.58;;
73632;SDS011;61927;50.080;14.418;2023-01-28T13:04:43;8.57;;;4.03;;
73632;SDS011;61927;50.080;14.418;2023-01-28T13:07:23;4.65;;;3.35;;
73632;SDS011;61927;50.080;14.418;2023-01-28T13:12:49;7.72;;;4.93;;
73632;SDS011;61927;50.080;14.418;2023-01-28T13:15:16;4.40;;;2.92;;
73632;SDS011;61927;50.080;14.418;2023-01-28T13:17:56;5.93;;;3.10;;
73632;SDS011;61927;50.080;14.418;2023-01-28T13:23:02;4.35;;;3.30;;
73632;SDS011;61927;50.080;14.418;2023-01-28T13:25:32;4.38;;;3.55;;
73632;SDS011;61927;50.080;14.418;2023-01-28T13:28:21;3.90;;;3.13;;
73632;SDS011;61927;50.080;14.418;2023-01-28T13:30:50;4.82;;;3.55;;
73632;SDS011;61927;50.080;14.418;2023-01-28T13:33:28;3.08;;;2.72;;
73632;SDS011;61927;50.080;14.418;2023-01-28T13:35:57;3.13;;;2.78;;
73632;SDS011;61927;50.080;14.418;2023-01-28T13:38:26;5.00;;;3.33;;
73632;SDS011;61927;50.080;14.418;2023-01-28T13:40:57;3.78;;;3.40;;
73632;SDS011;61927;50.080;14.418;2023-01-28T13:46:00;6.50;;;3.47;;
73632;SDS011;61927;50.080;14.418;2023-01-28T13:48:32;7.78;;;4.40;;
73632;SDS011;61927;50.080;14.418;2023-01-28T13:51:09;8.55;;;3.60;;
73632;SDS011;61927;50.080;14.418;2023-01-28T13:53:46;5.18;;;2.83;;
73632;SDS011;61927;50.080;14.418;2023-01-28T13:56:21;4.45;;;3.40;;
73632;SDS011;61927;50.080;14.418;2023-01-28T14:05:03;8.85;;;3.80;;
73632;SDS011;61927;50.080;14.418;2023-01-28T14:11:02;5.85;;;3.55;;
73632;SDS011;61927;50.080;14.418;2023-01-28T14:16:47;5.97;;;3.38;;
73632;SDS011;61927;50.080;14.418;2023-01-28T14:19:17;3.63;;;3.00;;
73632;SDS011;61927;50.080;14.418;2023-01-28T14:21:50;6.65;;;4.55;;
73632;SDS011;61927;50.080;14.418;2023-01-28T14:24:16;4.80;;;3.83;;
73632;SDS011;61927;50.080;14.418;2023-01-28T14:31:50;7.93;;;4.00;;
73632;SDS011;61927;50.080;14.418;2023-01-28T14:34:33;4.80;;;3.50;;
73632;SDS011;61927;50.080;14.418;2023-01-28T14:37:02;3.85;;;3.38;;
73632;SDS011;61927;50.080;14.418;2023-01-28T14:39:31;5.20;;;3.53;;
73632;SDS011;61927;50.080;14.418;2023-01-28T14:42:10;4.40;;;3.30;;
73632;SDS011;61927;50.080;14.418;2023-01-28T14:44:41;5.13;;;3.17;;
73632;SDS011;61927;50.080;14.418;2023-01-28T14:55:25;3.83;;;2.42;;
73632;SDS011;61927;50.080;14.418;2023-01-28T14:58:06;6.78;;;2.80;;
73632;SDS011;61927;50.080;14.418;2023-01-28T15:00:40;3.65;;;3.20;;
73632;SDS011;61927;50.080;14.418;2023-01-28T15:03:17;5.45;;;3.88;;
73632;SDS011;61927;50.080;14.418;2023-01-28T15:05:44;11.93;;;3.05;;
73632;SDS011;61927;50.080;14.418;2023-01-28T15:08:21;3.30;;;2.92;;
73632;SDS011;61927;50.080;14.418;2023-01-28T15:10:48;4.40;;;3.38;;
73632;SDS011;61927;50.080;14.418;2023-01-28T15:13:23;3.75;;;3.30;;
73632;SDS011;61927;50.080;14.418;2023-01-28T15:15:53;4.70;;;3.47;;
73632;SDS011;61927;50.080;14.418;2023-01-28T15:18:28;9.15;;;3.70;;
73632;SDS011;61927;50.080;14.418;2023-01-28T15:20:56;7.55;;;3.85;;
73632;SDS011;61927;50.080;14.418;2023-01-28T15:23:41;10.35;;;4.10;;
73632;SDS011;61927;50.080;14.418;2023-01-28T15:26:16;10.20;;;3.95;;
73632;SDS011;61927;50.080;14.418;2023-01-28T15:28:46;5.85;;;4.32;;
73632;SDS011;61927;50.080;14.418;2023-01-28T15:31:18;13.13;;;4.95;;
73632;SDS011;61927;50.080;14.418;2023-01-28T15:33:45;7.90;;;5.60;;
73632;SDS011;61927;50.080;14.418;2023-01-28T15:36:11;6.30;;;4.25;;
73632;SDS011;61927;50.080;14.418;2023-01-28T15:38:36;6.32;;;4.68;;
73632;SDS011;61927;50.080;14.418;2023-01-28T15:41:02;12.63;;;5.00;;
73632;SDS011;61927;50.080;14.418;2023-01-28T15:43:36;7.63;;;4.10;;
73632;SDS011;61927;50.080;14.418;2023-01-28T15:46:03;11.05;;;4.63;;
73632;SDS011;61927;50.080;14.418;2023-01-28T15:48:35;7.15;;;3.95;;
73632;SDS011;61927;50.080;14.418;2023-01-28T15:51:19;5.28;;;3.63;;
73632;SDS011;61927;50.080;14.418;2023-01-28T15:53:55;5.32;;;3.90;;
73632;SDS011;61927;50.080;14.418;2023-01-28T15:56:25;6.25;;;4.38;;
73632;SDS011;61927;50.080;14.418;2023-01-28T15:58:52;5.03;;;3.83;;
73632;SDS011;61927;50.080;14.418;2023-01-28T16:01:19;6.40;;;3.80;;
73632;SDS011;61927;50.080;14.418;2023-01-28T16:03:46;7.47;;;4.32;;
73632;SDS011;61927;50.080;14.418;2023-01-28T16:06:28;7.78;;;4.88;;
73632;SDS011;61927;50.080;14.418;2023-01-28T16:08:57;7.70;;;4.93;;
73632;SDS011;61927;50.080;14.418;2023-01-28T16:11:29;7.10;;;4.70;;
73632;SDS011;61927;50.080;14.418;2023-01-28T16:13:59;6.05;;;4.75;;
73632;SDS011;61927;50.080;14.418;2023-01-28T16:16:32;13.57;;;4.88;;
73632;SDS011;61927;50.080;14.418;2023-01-28T16:19:01;8.32;;;4.95;;
73632;SDS011;61927;50.080;14.418;2023-01-28T16:21:30;8.35;;;4.95;;
73632;SDS011;61927;50.080;14.418;2023-01-28T16:24:03;12.18;;;4.57;;
73632;SDS011;61927;50.080;14.418;2023-01-28T16:26:32;8.50;;;4.63;;
73632;SDS011;61927;50.080;14.418;2023-01-28T16:29:00;10.52;;;6.07;;
73632;SDS011;61927;50.080;14.418;2023-01-28T16:31:38;10.68;;;6.88;;
73632;SDS011;61927;50.080;14.418;2023-01-28T16:34:03;6.50;;;4.90;;
73632;SDS011;61927;50.080;14.418;2023-01-28T16:36:29;9.02;;;5.28;;
73632;SDS011;61927;50.080;14.418;2023-01-28T16:38:54;8.23;;;5.05;;
73632;SDS011;61927;50.080;14.418;2023-01-28T16:41:24;7.45;;;4.93;;
73632;SDS011;61927;50.080;14.418;2023-01-28T16:43:52;9.00;;;5.15;;
73632;SDS011;61927;50.080;14.418;2023-01-28T16:46:18;6.88;;;4.45;;
73632;SDS011;61927;50.080;14.418;2023-01-28T16:48:43;4.13;;;3.72;;